createdAt,value
2023-04-23T00:01:17.196Z,43.07
2023-04-23T00:04:21.409Z,42.96
2023-04-23T00:07:23.503Z,42.95
2023-04-23T00:10:26.532Z,42.92
2023-04-23T00:13:28.536Z,43.12
2023-04-23T00:16:30.642Z,43.34
2023-04-23T00:19:32.283Z,43.26
2023-04-23T00:22:33.978Z,43.44
2023-04-23T00:25:35.668Z,43.57
2023-04-23T00:28:37.609Z,43.25
2023-04-23T00:31:39.660Z,43.45
2023-04-23T00:34:41.777Z,43.43
2023-04-23T00:37:44.036Z,43.45
2023-04-23T00:40:45.993Z,43.49
2023-04-23T00:43:52.531Z,43.70
2023-04-23T00:46:55.267Z,43.92
2023-04-23T00:49:58.713Z,44.06
2023-04-23T00:53:00.718Z,43.88
2023-04-23T00:56:04.826Z,43.89
2023-04-23T00:59:06.590Z,44.14
2023-04-23T01:02:08.546Z,44.35
2023-04-23T01:05:11.391Z,44.32
2023-04-23T01:08:16.017Z,44.38
2023-04-23T01:11:18.039Z,44.41
2023-04-23T01:14:20.280Z,44.35
2023-04-23T01:17:22.292Z,44.48
2023-04-23T01:20:24.063Z,44.61
2023-04-23T01:23:26.640Z,44.64
2023-04-23T01:26:28.305Z,44.65
2023-04-23T01:29:31.297Z,44.58
2023-04-23T01:32:33.332Z,44.75
2023-04-23T01:35:35.922Z,44.76
2023-04-23T01:38:38.356Z,45.03
2023-04-23T01:41:40.997Z,45.02
2023-04-23T01:44:43.736Z,44.86
2023-04-23T01:47:47.099Z,44.92
2023-04-23T01:50:50.778Z,45.02
2023-04-23T01:53:52.711Z,45.07
2023-04-23T01:56:55.213Z,45.04
2023-04-23T02:00:10.688Z,45.19
2023-04-23T02:03:15.919Z,45.13
2023-04-23T02:06:17.988Z,45.24
2023-04-23T02:09:19.675Z,45.42
2023-04-23T02:12:21.625Z,45.26
2023-04-23T02:15:23.317Z,45.43
2023-04-23T02:18:25.216Z,45.48
2023-04-23T02:21:27.366Z,45.65
2023-04-23T02:24:29.142Z,45.69
2023-04-23T02:27:32.717Z,45.73
2023-04-23T02:30:34.979Z,45.68
2023-04-23T02:33:36.604Z,45.80
2023-04-23T02:36:38.605Z,45.81
2023-04-23T02:39:40.385Z,45.93
2023-04-23T02:42:43.867Z,45.94
2023-04-23T02:45:45.846Z,46.03
2023-04-23T02:48:47.533Z,45.96
2023-04-23T02:51:49.400Z,45.98
2023-04-23T02:54:51.257Z,46.01
2023-04-23T02:57:53.019Z,46.10
2023-04-23T03:00:56.302Z,46.17
2023-04-23T03:03:58.748Z,46.32
2023-04-23T03:07:00.672Z,46.48
2023-04-23T03:10:02.958Z,46.43
2023-04-23T03:13:04.780Z,46.49
2023-04-23T03:16:06.689Z,46.67
2023-04-23T03:19:09.246Z,46.67
2023-04-23T03:22:11.181Z,46.71
2023-04-23T03:25:12.951Z,46.80
2023-04-23T03:28:14.717Z,46.79
2023-04-23T03:31:16.520Z,46.83
2023-04-23T03:34:18.617Z,46.83
2023-04-23T03:37:20.286Z,46.96
2023-04-23T03:40:22.627Z,47.01
2023-04-23T03:43:27.203Z,47.03
2023-04-23T03:46:37.846Z,47.08
2023-04-23T03:49:39.811Z,47.00
2023-04-23T03:52:42.242Z,47.10
2023-04-23T03:55:47.670Z,47.25
2023-04-23T03:58:50.387Z,47.40
2023-04-23T04:01:52.216Z,47.60
2023-04-23T04:04:54.573Z,47.58
2023-04-23T04:07:58.236Z,47.71
2023-04-23T04:11:00.814Z,47.78
2023-04-23T04:14:02.545Z,47.85
2023-04-23T04:17:04.224Z,47.98
2023-04-23T04:20:10.565Z,48.10
2023-04-23T04:23:12.232Z,48.09
2023-04-23T04:26:14.703Z,48.02
2023-04-23T04:29:16.333Z,48.25
2023-04-23T04:32:18.454Z,48.31
2023-04-23T04:35:20.227Z,48.35
2023-04-23T04:38:21.914Z,48.53
2023-04-23T04:41:27.740Z,48.70
2023-04-23T04:44:30.041Z,48.83
2023-04-23T04:47:32.141Z,49.03
2023-04-23T04:50:34.429Z,48.97
2023-04-23T04:53:36.166Z,49.16
2023-04-23T04:56:37.929Z,49.39
2023-04-23T04:59:39.883Z,49.41
2023-04-23T05:02:41.918Z,49.51
2023-04-23T05:05:44.720Z,49.48
2023-04-23T05:08:49.244Z,49.76
2023-04-23T05:11:51.319Z,49.76
2023-04-23T05:14:54.338Z,49.73
2023-04-23T05:17:56.215Z,49.95
2023-04-23T05:20:58.518Z,49.83
2023-04-23T05:24:07.571Z,49.64
2023-04-23T05:27:09.729Z,49.14
2023-04-23T05:30:11.930Z,48.88
2023-04-23T05:33:13.909Z,48.69
2023-04-23T05:36:17.427Z,48.46
2023-04-23T05:39:19.305Z,48.44
2023-04-23T05:42:21.462Z,48.21
2023-04-23T05:45:23.186Z,47.89
2023-04-23T05:48:24.978Z,47.66
2023-04-23T05:51:26.896Z,47.64
2023-04-23T05:54:28.991Z,47.57
2023-04-23T05:57:30.741Z,47.45
2023-04-23T06:00:34.841Z,47.20
2023-04-23T06:03:37.020Z,47.15
2023-04-23T06:06:39.285Z,46.96
2023-04-23T06:09:41.221Z,46.74
2023-04-23T06:12:43.149Z,46.65
2023-04-23T06:15:45.110Z,46.40
2023-04-23T06:18:46.884Z,46.36
2023-04-23T06:21:50.098Z,46.21
2023-04-23T06:25:01.678Z,45.99
2023-04-23T06:28:03.921Z,45.74
2023-04-23T06:31:09.100Z,45.59
2023-04-23T06:34:10.912Z,45.58
2023-04-23T06:37:12.693Z,45.38
2023-04-23T06:40:14.656Z,45.12
2023-04-23T06:43:16.437Z,44.94
2023-04-23T06:46:53.413Z,44.96
2023-04-23T06:49:55.125Z,44.85
2023-04-23T06:52:56.944Z,44.75
2023-04-23T06:55:58.654Z,44.46
2023-04-23T06:59:00.710Z,44.39
2023-04-23T07:02:02.496Z,44.32
2023-04-23T07:05:04.722Z,44.25
2023-04-23T07:08:06.434Z,43.91
2023-04-23T07:11:10.077Z,43.73
2023-04-23T07:14:11.824Z,43.34
2023-04-23T07:17:13.964Z,43.40
2023-04-23T07:20:16.079Z,43.22
2023-04-23T07:23:20.708Z,42.80
2023-04-23T07:26:27.535Z,42.68
2023-04-23T07:29:29.411Z,42.15
2023-04-23T07:32:31.414Z,41.43
2023-04-23T07:35:33.363Z,40.98
2023-04-23T07:38:35.282Z,40.81
2023-04-23T07:41:42.967Z,40.65
2023-04-23T07:44:44.965Z,40.62
2023-04-23T07:47:49.357Z,40.33
2023-04-23T07:50:51.357Z,39.93
2023-04-23T07:53:53.887Z,39.60
2023-04-23T07:56:56.848Z,39.26
2023-04-23T07:59:58.660Z,38.92
2023-04-23T08:03:00.575Z,38.85
2023-04-23T08:06:04.114Z,38.52
2023-04-23T08:09:05.921Z,38.17
2023-04-23T08:12:07.706Z,37.98
2023-04-23T08:15:10.180Z,37.61
2023-04-23T08:18:14.887Z,37.41
2023-04-23T08:21:16.975Z,36.99
2023-04-23T08:24:18.589Z,36.84
2023-04-23T08:27:21.132Z,36.86
2023-04-23T08:30:23.072Z,36.44
2023-04-23T08:33:24.964Z,36.00
2023-04-23T08:36:27.880Z,35.86
2023-04-23T08:39:32.354Z,35.01
2023-04-23T08:42:47.994Z,34.67
2023-04-23T08:45:49.929Z,34.74
2023-04-23T08:48:52.687Z,34.50
2023-04-23T08:51:58.403Z,34.03
2023-04-23T08:55:01.490Z,33.63
2023-04-23T08:58:05.713Z,33.42
2023-04-23T09:01:07.905Z,33.35
2023-04-23T09:04:10.598Z,32.94
2023-04-23T09:07:12.725Z,32.85
2023-04-23T09:10:17.694Z,32.72
2023-04-23T09:13:20.364Z,32.41
2023-04-23T09:16:22.117Z,32.32
2023-04-23T09:19:29.909Z,31.93
2023-04-23T09:23:00.970Z,31.83
2023-04-23T09:26:06.388Z,31.73
2023-04-23T09:29:13.173Z,31.61
2023-04-23T09:32:15.068Z,31.46
2023-04-23T09:35:20.937Z,31.23
2023-04-23T09:38:22.847Z,31.08
2023-04-23T09:41:26.468Z,31.15
2023-04-23T09:44:34.885Z,30.86
2023-04-23T09:47:48.167Z,30.82
2023-04-23T09:50:49.952Z,30.70
2023-04-23T09:53:52.519Z,31.08
2023-04-23T09:57:00.269Z,30.84
2023-04-23T10:03:15.985Z,30.81
2023-04-23T10:06:39.527Z,30.31
2023-04-23T10:09:41.421Z,30.33
2023-04-23T10:12:54.146Z,30.04
2023-04-23T10:16:07.463Z,29.88
2023-04-23T10:19:19.482Z,29.75
2023-04-23T10:22:21.830Z,29.63
2023-04-23T10:25:24.999Z,29.84
2023-04-23T10:28:31.284Z,29.53
2023-04-23T10:31:33.511Z,29.39
2023-04-23T10:34:37.528Z,29.45
2023-04-23T10:37:42.061Z,29.38
2023-04-23T10:40:48.524Z,29.24
2023-04-23T10:43:52.757Z,29.02
2023-04-23T10:46:57.401Z,28.90
2023-04-23T10:50:18.011Z,29.02
2023-04-23T10:53:22.819Z,29.20
2023-04-23T10:56:27.556Z,29.08
2023-04-23T10:59:31.913Z,29.10
2023-04-23T11:02:44.164Z,28.91
2023-04-23T11:05:46.125Z,28.81
2023-04-23T11:08:53.152Z,28.78
2023-04-23T11:11:55.119Z,28.50
2023-04-23T11:14:59.037Z,28.26
2023-04-23T11:18:01.511Z,28.13
2023-04-23T11:21:04.051Z,27.96
2023-04-23T11:24:07.225Z,27.87
2023-04-23T11:27:12.442Z,27.57
2023-04-23T11:30:19.691Z,27.73
2023-04-23T11:33:21.578Z,28.05
2023-04-23T11:36:23.569Z,28.07
2023-04-23T11:39:26.376Z,28.31
2023-04-23T11:42:28.876Z,28.37
2023-04-23T11:45:30.797Z,28.52
2023-04-23T11:48:34.496Z,28.48
2023-04-23T11:51:42.517Z,28.47
2023-04-23T11:54:44.230Z,28.44
2023-04-23T11:57:48.162Z,28.22
2023-04-23T12:00:57.461Z,28.31
2023-04-23T12:03:59.491Z,28.59
2023-04-23T12:07:04.331Z,28.68
2023-04-23T12:10:17.496Z,28.72
2023-04-23T12:13:23.859Z,28.41
2023-04-23T12:16:55.377Z,28.62
2023-04-23T12:19:57.101Z,28.47
2023-04-23T12:23:04.921Z,28.54
2023-04-23T12:26:14.691Z,28.52
2023-04-23T12:29:17.756Z,28.19
2023-04-23T12:32:23.860Z,28.27
2023-04-23T12:35:41.752Z,28.20
2023-04-23T12:38:43.857Z,27.72
2023-04-23T12:41:45.414Z,27.76
2023-04-23T12:44:47.625Z,27.96
2023-04-23T12:47:50.340Z,27.92
2023-04-23T12:50:52.701Z,27.61
2023-04-23T12:53:54.363Z,27.73
2023-04-23T12:56:56.152Z,27.50
2023-04-23T12:59:57.929Z,27.56
2023-04-23T13:02:59.720Z,27.30
2023-04-23T13:06:01.450Z,27.59
2023-04-23T13:09:04.710Z,27.85
2023-04-23T13:12:06.415Z,27.73
2023-04-23T13:15:08.608Z,27.58
2023-04-23T13:18:10.361Z,27.42
2023-04-23T13:21:12.344Z,27.30
2023-04-23T13:24:14.139Z,27.32
2023-04-23T13:27:15.799Z,27.77
2023-04-23T13:30:17.555Z,27.54
2023-04-23T13:33:20.545Z,27.51
2023-04-23T13:36:23.456Z,27.55
2023-04-23T13:39:25.346Z,27.58
2023-04-23T13:42:26.968Z,27.33
2023-04-23T13:45:28.796Z,27.27
2023-04-23T13:48:30.896Z,27.13
2023-04-23T13:51:36.130Z,27.21
2023-04-23T13:54:39.256Z,27.23
2023-04-23T13:57:41.062Z,27.11
2023-04-23T14:00:43.412Z,27.03
2023-04-23T14:03:46.657Z,27.00
2023-04-23T14:06:48.590Z,26.85
2023-04-23T14:09:52.175Z,26.68
2023-04-23T14:12:55.055Z,26.23
2023-04-23T14:15:56.792Z,25.87
2023-04-23T14:18:58.512Z,26.05
2023-04-23T14:22:00.302Z,26.02
2023-04-23T14:25:08.057Z,25.90
2023-04-23T14:28:32.760Z,25.65
2023-04-23T14:31:37.497Z,25.73
2023-04-23T14:34:39.290Z,25.72
2023-04-23T14:37:44.287Z,26.13
2023-04-23T14:40:46.227Z,26.68
2023-04-23T14:43:47.831Z,27.20
2023-04-23T14:46:50.550Z,27.65
2023-04-23T14:49:52.739Z,27.99
2023-04-23T14:52:54.800Z,28.34
2023-04-23T14:55:56.521Z,28.70
2023-04-23T14:58:58.250Z,28.87
2023-04-23T15:02:00.717Z,29.19
2023-04-23T15:05:02.620Z,29.24
2023-04-23T15:08:04.387Z,29.42
2023-04-23T15:11:12.481Z,29.48
2023-04-23T15:14:35.852Z,29.57
2023-04-23T15:17:37.587Z,29.55
2023-04-23T15:20:39.558Z,29.44
2023-04-23T15:23:41.625Z,29.51
2023-04-23T15:26:44.990Z,29.50
2023-04-23T15:29:46.727Z,29.64
2023-04-23T15:32:48.586Z,29.77
2023-04-23T15:35:53.365Z,29.81
2023-04-23T15:38:55.174Z,29.60
2023-04-23T15:41:57.585Z,29.65
2023-04-23T15:44:59.473Z,29.47
2023-04-23T15:48:01.296Z,29.50
2023-04-23T15:51:03.233Z,29.55
2023-04-23T15:54:07.519Z,29.59
2023-04-23T15:57:09.376Z,29.71
2023-04-23T16:00:11.937Z,30.14
2023-04-23T16:03:14.474Z,30.19
2023-04-23T16:06:16.446Z,30.62
2023-04-23T16:09:18.453Z,30.67
2023-04-23T16:12:34.679Z,30.71
2023-04-23T16:15:36.618Z,30.92
2023-04-23T16:18:38.352Z,31.17
2023-04-23T16:21:40.239Z,31.23
2023-04-23T16:24:41.961Z,31.31
2023-04-23T16:27:43.994Z,31.48
2023-04-23T16:30:45.834Z,31.45
2023-04-23T16:33:47.575Z,31.53
2023-04-23T16:36:49.328Z,31.47
2023-04-23T16:39:51.086Z,31.64
2023-04-23T16:42:53.198Z,31.65
2023-04-23T16:45:55.159Z,31.71
2023-04-23T16:48:59.887Z,31.87
2023-04-23T16:52:02.908Z,32.15
2023-04-23T16:55:05.341Z,32.29
2023-04-23T16:58:09.397Z,32.50
2023-04-23T17:01:11.515Z,32.80
2023-04-23T17:04:13.470Z,32.97
2023-04-23T17:07:15.349Z,33.11
2023-04-23T17:10:18.235Z,33.27
2023-04-23T17:13:20.054Z,33.53
2023-04-23T17:16:22.465Z,33.35
2023-04-23T17:19:24.291Z,33.40
2023-04-23T17:22:26.779Z,33.47
2023-04-23T17:25:28.608Z,33.64
2023-04-23T17:28:30.362Z,33.65
2023-04-23T17:31:32.259Z,33.79
2023-04-23T17:34:34.356Z,34.01
2023-04-23T17:37:35.912Z,33.86
2023-04-23T17:40:39.381Z,34.11
2023-04-23T17:43:41.293Z,34.26
2023-04-23T17:46:42.997Z,34.54
2023-04-23T17:49:44.794Z,35.29
2023-04-23T17:52:46.634Z,35.57
2023-04-23T17:55:48.395Z,36.12
2023-04-23T17:58:50.602Z,36.06
2023-04-23T18:01:52.408Z,36.13
2023-04-23T18:04:54.935Z,36.22
2023-04-23T18:07:57.580Z,36.50
2023-04-23T18:10:59.740Z,36.43
2023-04-23T18:14:01.865Z,36.60
2023-04-23T18:17:03.551Z,37.00
2023-04-23T18:20:06.149Z,36.99
2023-04-23T18:23:09.057Z,37.18
2023-04-23T18:26:10.805Z,37.55
2023-04-23T18:29:12.485Z,37.64
2023-04-23T18:32:24.015Z,37.84
2023-04-23T18:35:29.556Z,38.35
2023-04-23T18:38:38.376Z,38.39
2023-04-23T18:41:40.096Z,38.28
2023-04-23T18:44:42.070Z,38.47
2023-04-23T18:47:50.680Z,38.82
2023-04-23T18:50:56.625Z,38.81
2023-04-23T18:54:00.925Z,38.90
2023-04-23T18:57:02.721Z,39.23
2023-04-23T19:00:05.432Z,39.50
2023-04-23T19:03:19.468Z,39.78
2023-04-23T19:06:27.577Z,39.90
2023-04-23T19:09:29.368Z,40.35
2023-04-23T19:12:31.102Z,40.51
2023-04-23T19:15:32.896Z,40.74
2023-04-23T19:18:35.365Z,40.86
2023-04-23T19:21:37.362Z,41.32
2023-04-23T19:24:39.111Z,41.43
2023-04-23T19:27:40.788Z,41.59
2023-04-23T19:30:42.726Z,41.79
2023-04-23T19:33:45.692Z,41.58
2023-04-23T19:36:47.454Z,41.80
2023-04-23T19:39:49.636Z,41.86
2023-04-23T19:42:51.206Z,42.10
2023-04-23T19:45:52.961Z,42.18
2023-04-23T19:48:55.000Z,42.25
2023-04-23T19:51:57.530Z,42.44
2023-04-23T19:54:59.231Z,42.62
2023-04-23T19:58:05.539Z,42.97
2023-04-23T20:01:07.308Z,42.99
2023-04-23T20:04:09.331Z,43.08
2023-04-23T20:07:11.891Z,43.12
2023-04-23T20:10:15.743Z,43.34
2023-04-23T20:13:19.982Z,43.49
2023-04-23T20:16:21.766Z,43.49
2023-04-23T20:19:26.343Z,43.39
2023-04-23T20:22:29.044Z,43.46
2023-04-23T20:25:31.422Z,43.69
2023-04-23T20:28:33.728Z,43.77
2023-04-23T20:31:35.895Z,43.72
2023-04-23T20:34:37.537Z,43.97
2023-04-23T20:37:40.159Z,43.94
2023-04-23T20:40:41.839Z,44.15
2023-04-23T20:43:43.648Z,44.16
2023-04-23T20:46:45.768Z,44.31
2023-04-23T20:49:47.974Z,44.54
2023-04-23T20:52:49.758Z,44.70
2023-04-23T20:55:51.755Z,44.85
2023-04-23T20:58:53.475Z,44.89
2023-04-23T21:01:55.334Z,44.92
2023-04-23T21:04:57.138Z,45.13
2023-04-23T21:07:58.901Z,45.04
2023-04-23T21:11:01.256Z,45.14
2023-04-23T21:14:03.058Z,45.30
2023-04-23T21:17:05.117Z,45.41
2023-04-23T21:20:07.897Z,45.67
2023-04-23T21:23:12.640Z,45.72
2023-04-23T21:26:14.456Z,45.63
2023-04-23T21:29:16.169Z,45.80
2023-04-23T21:32:17.910Z,45.84
2023-04-23T21:35:19.601Z,46.02
2023-04-23T21:38:21.595Z,45.98
2023-04-23T21:41:23.924Z,46.25
2023-04-23T21:44:27.866Z,46.35
2023-04-23T21:47:29.741Z,46.38
2023-04-23T21:50:32.158Z,46.50
2023-04-23T21:53:33.999Z,46.85
2023-04-23T21:56:35.794Z,46.72
2023-04-23T21:59:37.577Z,46.72
2023-04-23T22:02:41.428Z,46.97
2023-04-23T22:05:43.456Z,47.07
2023-04-23T22:08:46.134Z,47.17
2023-04-23T22:12:01.005Z,47.49
2023-04-23T22:15:06.019Z,47.48
2023-04-23T22:18:07.980Z,47.64
2023-04-23T22:21:09.732Z,47.91
2023-04-23T22:24:11.468Z,47.90
2023-04-23T22:27:13.759Z,48.02
2023-04-23T22:30:15.698Z,48.18
2023-04-23T22:33:17.560Z,48.26
2023-04-23T22:36:20.561Z,48.42
2023-04-23T22:39:22.359Z,48.33
2023-04-23T22:42:24.046Z,48.60
2023-04-23T22:45:25.838Z,48.68
2023-04-23T22:48:28.092Z,48.76
2023-04-23T22:51:32.743Z,48.60
2023-04-23T22:54:34.399Z,48.88
2023-04-23T22:57:36.135Z,48.91
2023-04-23T23:00:38.249Z,48.83
2023-04-23T23:03:40.070Z,49.09
2023-04-23T23:06:42.624Z,49.24
2023-04-23T23:09:44.631Z,49.41
2023-04-23T23:12:46.512Z,49.62
2023-04-23T23:15:48.252Z,49.58
2023-04-23T23:18:50.007Z,49.50
2023-04-23T23:21:51.873Z,49.48
2023-04-23T23:24:53.959Z,49.63
2023-04-23T23:27:55.784Z,49.72
2023-04-23T23:30:57.861Z,49.86
2023-04-23T23:33:59.738Z,49.85
2023-04-23T23:37:01.531Z,49.88
2023-04-23T23:40:05.043Z,49.94
2023-04-23T23:43:06.839Z,50.02
2023-04-23T23:46:09.931Z,50.02
2023-04-23T23:49:11.731Z,50.11
2023-04-23T23:52:13.514Z,50.23
2023-04-23T23:55:15.809Z,50.25
2023-04-23T23:58:17.443Z,50.36
